sensor_id;sensor_type;location;lat;lon;timestamp;P1;durP1;ratioP1;P2;durP2;ratioP2
11819;SDS011;5967;48.944;9.240;2022-09-21T00:03:54;10.87;;;6.23;;
11819;SDS011;5967;48.944;9.240;2022-09-21T00:06:22;11.53;;;5.90;;
11819;SDS011;5967;48.944;9.240;2022-09-21T00:08:49;8.77;;;5.37;;
11819;SDS011;5967;48.944;9.240;2022-09-21T00:11:19;6.73;;;4.27;;
11819;SDS011;5967;48.944;9.240;2022-09-21T00:13:55;7.13;;;4.17;;
11819;SDS011;5967;48.944;9.240;2022-09-21T00:16:24;6.07;;;4.30;;
11819;SDS011;5967;48.944;9.240;2022-09-21T00:18:50;7.10;;;4.60;;
11819;SDS011;5967;48.944;9.240;2022-09-21T00:21:16;13.83;;;6.63;;
11819;SDS011;5967;48.944;9.240;2022-09-21T00:23:42;11.40;;;6.00;;
11819;SDS011;5967;48.944;9.240;2022-09-21T00:26:18;12.57;;;8.33;;
11819;SDS011;5967;48.944;9.240;2022-09-21T00:28:45;10.40;;;5.77;;
11819;SDS011;5967;48.944;9.240;2022-09-21T00:31:12;13.40;;;5.63;;
11819;SDS011;5967;48.944;9.240;2022-09-21T00:33:40;7.90;;;5.50;;
11819;SDS011;5967;48.944;9.240;2022-09-21T00:36:08;12.70;;;5.77;;
11819;SDS011;5967;48.944;9.240;2022-09-21T00:38:41;6.83;;;4.70;;
11819;SDS011;5967;48.944;9.240;2022-09-21T00:41:10;7.37;;;4.47;;
11819;SDS011;5967;48.944;9.240;2022-09-21T00:43:38;7.40;;;4.30;;
11819;SDS011;5967;48.944;9.240;2022-09-21T00:46:11;8.23;;;4.40;;
11819;SDS011;5967;48.944;9.240;2022-09-21T00:48:59;7.07;;;4.80;;
11819;SDS011;5967;48.944;9.240;2022-09-21T00:51:25;8.50;;;4.80;;
11819;SDS011;5967;48.944;9.240;2022-09-21T00:53:52;7.63;;;4.20;;
11819;SDS011;5967;48.944;9.240;2022-09-21T00:56:21;7.23;;;4.83;;
11819;SDS011;5967;48.944;9.240;2022-09-21T00:58:48;6.20;;;4.13;;
11819;SDS011;5967;48.944;9.240;2022-09-21T01:01:16;5.50;;;3.97;;
11819;SDS011;5967;48.944;9.240;2022-09-21T01:03:46;6.33;;;4.37;;
11819;SDS011;5967;48.944;9.240;2022-09-21T01:06:15;8.53;;;4.40;;
11819;SDS011;5967;48.944;9.240;2022-09-21T01:08:43;7.73;;;3.97;;
11819;SDS011;5967;48.944;9.240;2022-09-21T01:11:23;6.10;;;4.17;;
11819;SDS011;5967;48.944;9.240;2022-09-21T01:22:09;8.33;;;4.40;;
11819;SDS011;5967;48.944;9.240;2022-09-21T01:25:02;5.37;;;4.27;;
11819;SDS011;5967;48.944;9.240;2022-09-21T01:30:56;6.47;;;4.03;;
11819;SDS011;5967;48.944;9.240;2022-09-21T01:33:28;8.60;;;4.27;;
11819;SDS011;5967;48.944;9.240;2022-09-21T01:36:00;6.30;;;4.57;;
11819;SDS011;5967;48.944;9.240;2022-09-21T01:38:32;8.60;;;4.50;;
11819;SDS011;5967;48.944;9.240;2022-09-21T01:41:03;11.47;;;4.37;;
11819;SDS011;5967;48.944;9.240;2022-09-21T01:43:32;6.53;;;4.33;;
11819;SDS011;5967;48.944;9.240;2022-09-21T01:46:00;6.40;;;4.60;;
11819;SDS011;5967;48.944;9.240;2022-09-21T01:48:32;6.33;;;4.10;;
11819;SDS011;5967;48.944;9.240;2022-09-21T01:51:01;8.87;;;4.20;;
11819;SDS011;5967;48.944;9.240;2022-09-21T01:56:19;4.93;;;3.83;;
11819;SDS011;5967;48.944;9.240;2022-09-21T02:01:39;5.77;;;4.00;;
11819;SDS011;5967;48.944;9.240;2022-09-21T02:04:10;8.60;;;4.80;;
11819;SDS011;5967;48.944;9.240;2022-09-21T02:06:39;8.80;;;4.60;;
11819;SDS011;5967;48.944;9.240;2022-09-21T02:09:07;6.63;;;4.40;;
11819;SDS011;5967;48.944;9.240;2022-09-21T02:11:34;8.93;;;4.77;;
11819;SDS011;5967;48.944;9.240;2022-09-21T02:14:06;5.73;;;4.73;;
11819;SDS011;5967;48.944;9.240;2022-09-21T02:16:36;7.67;;;4.50;;
11819;SDS011;5967;48.944;9.240;2022-09-21T02:19:14;10.23;;;4.97;;
11819;SDS011;5967;48.944;9.240;2022-09-21T02:22:07;6.67;;;4.50;;
11819;SDS011;5967;48.944;9.240;2022-09-21T02:25:03;6.20;;;4.30;;
11819;SDS011;5967;48.944;9.240;2022-09-21T02:27:35;7.80;;;4.37;;
11819;SDS011;5967;48.944;9.240;2022-09-21T02:30:06;5.80;;;4.60;;
11819;SDS011;5967;48.944;9.240;2022-09-21T02:35:30;7.07;;;4.23;;
11819;SDS011;5967;48.944;9.240;2022-09-21T02:40:36;4.93;;;3.80;;
11819;SDS011;5967;48.944;9.240;2022-09-21T02:43:13;5.27;;;3.67;;
11819;SDS011;5967;48.944;9.240;2022-09-21T02:45:47;4.43;;;3.80;;
11819;SDS011;5967;48.944;9.240;2022-09-21T02:48:21;7.87;;;4.50;;
11819;SDS011;5967;48.944;9.240;2022-09-21T02:51:01;6.80;;;3.70;;
11819;SDS011;5967;48.944;9.240;2022-09-21T02:53:48;5.87;;;3.53;;
11819;SDS011;5967;48.944;9.240;2022-09-21T02:56:16;3.93;;;2.87;;
11819;SDS011;5967;48.944;9.240;2022-09-21T02:58:44;6.80;;;3.63;;
11819;SDS011;5967;48.944;9.240;2022-09-21T03:01:13;7.43;;;4.10;;
11819;SDS011;5967;48.944;9.240;2022-09-21T03:03:41;5.23;;;4.00;;
11819;SDS011;5967;48.944;9.240;2022-09-21T03:06:06;6.70;;;3.93;;
11819;SDS011;5967;48.944;9.240;2022-09-21T03:08:32;5.13;;;3.63;;
11819;SDS011;5967;48.944;9.240;2022-09-21T03:10:58;5.57;;;3.50;;
11819;SDS011;5967;48.944;9.240;2022-09-21T03:13:23;4.33;;;3.47;;
11819;SDS011;5967;48.944;9.240;2022-09-21T03:15:49;6.87;;;3.50;;
11819;SDS011;5967;48.944;9.240;2022-09-21T03:18:27;8.60;;;3.73;;
11819;SDS011;5967;48.944;9.240;2022-09-21T03:20:52;5.50;;;3.80;;
11819;SDS011;5967;48.944;9.240;2022-09-21T03:23:19;5.47;;;3.50;;
11819;SDS011;5967;48.944;9.240;2022-09-21T03:25:44;6.00;;;3.37;;
11819;SDS011;5967;48.944;9.240;2022-09-21T03:28:11;4.57;;;3.47;;
11819;SDS011;5967;48.944;9.240;2022-09-21T03:30:38;5.20;;;3.90;;
11819;SDS011;5967;48.944;9.240;2022-09-21T03:33:04;4.73;;;3.40;;
11819;SDS011;5967;48.944;9.240;2022-09-21T03:35:31;7.07;;;3.80;;
11819;SDS011;5967;48.944;9.240;2022-09-21T03:37:58;5.30;;;3.70;;
11819;SDS011;5967;48.944;9.240;2022-09-21T03:40:24;8.90;;;3.90;;
11819;SDS011;5967;48.944;9.240;2022-09-21T03:42:51;5.10;;;3.60;;
11819;SDS011;5967;48.944;9.240;2022-09-21T03:45:17;5.07;;;3.80;;
11819;SDS011;5967;48.944;9.240;2022-09-21T03:47:43;7.77;;;3.73;;
11819;SDS011;5967;48.944;9.240;2022-09-21T03:50:09;5.23;;;3.87;;
11819;SDS011;5967;48.944;9.240;2022-09-21T03:52:36;6.40;;;3.40;;
11819;SDS011;5967;48.944;9.240;2022-09-21T03:55:03;6.37;;;3.13;;
11819;SDS011;5967;48.944;9.240;2022-09-21T03:57:30;6.57;;;3.27;;
11819;SDS011;5967;48.944;9.240;2022-09-21T03:59:56;4.47;;;3.30;;
11819;SDS011;5967;48.944;9.240;2022-09-21T04:02:22;4.03;;;2.90;;
11819;SDS011;5967;48.944;9.240;2022-09-21T04:04:48;3.70;;;3.07;;
11819;SDS011;5967;48.944;9.240;2022-09-21T04:07:13;7.37;;;4.13;;
11819;SDS011;5967;48.944;9.240;2022-09-21T04:09:39;4.43;;;3.33;;
11819;SDS011;5967;48.944;9.240;2022-09-21T04:12:05;4.57;;;3.13;;
11819;SDS011;5967;48.944;9.240;2022-09-21T04:14:31;5.00;;;3.57;;
11819;SDS011;5967;48.944;9.240;2022-09-21T04:16:58;5.03;;;3.60;;
11819;SDS011;5967;48.944;9.240;2022-09-21T04:19:23;4.77;;;3.53;;
11819;SDS011;5967;48.944;9.240;2022-09-21T04:21:49;5.07;;;3.20;;
11819;SDS011;5967;48.944;9.240;2022-09-21T04:24:19;3.67;;;3.10;;
11819;SDS011;5967;48.944;9.240;2022-09-21T04:26:44;6.70;;;3.87;;
11819;SDS011;5967;48.944;9.240;2022-09-21T04:29:11;5.60;;;3.07;;
11819;SDS011;5967;48.944;9.240;2022-09-21T04:31:37;5.63;;;3.40;;
11819;SDS011;5967;48.944;9.240;2022-09-21T04:34:03;8.37;;;4.93;;
11819;SDS011;5967;48.944;9.240;2022-09-21T04:36:28;17.70;;;10.53;;
11819;SDS011;5967;48.944;9.240;2022-09-21T04:38:56;8.53;;;5.03;;
11819;SDS011;5967;48.944;9.240;2022-09-21T04:41:22;9.90;;;4.97;;
11819;SDS011;5967;48.944;9.240;2022-09-21T04:43:48;4.37;;;3.27;;
11819;SDS011;5967;48.944;9.240;2022-09-21T04:46:15;6.00;;;3.87;;
11819;SDS011;5967;48.944;9.240;2022-09-21T04:48:42;7.73;;;3.60;;
11819;SDS011;5967;48.944;9.240;2022-09-21T04:51:08;3.63;;;3.00;;
11819;SDS011;5967;48.944;9.240;2022-09-21T04:53:35;8.90;;;3.33;;
11819;SDS011;5967;48.944;9.240;2022-09-21T04:56:02;5.07;;;4.03;;
11819;SDS011;5967;48.944;9.240;2022-09-21T04:58:29;4.37;;;3.80;;
11819;SDS011;5967;48.944;9.240;2022-09-21T05:00:55;5.10;;;4.10;;
11819;SDS011;5967;48.944;9.240;2022-09-21T05:03:21;5.43;;;4.70;;
11819;SDS011;5967;48.944;9.240;2022-09-21T05:05:48;7.30;;;4.17;;
11819;SDS011;5967;48.944;9.240;2022-09-21T05:08:15;7.97;;;4.00;;
11819;SDS011;5967;48.944;9.240;2022-09-21T05:10:41;6.17;;;3.53;;
11819;SDS011;5967;48.944;9.240;2022-09-21T05:13:08;5.77;;;3.20;;
11819;SDS011;5967;48.944;9.240;2022-09-21T05:15:35;6.17;;;4.00;;
11819;SDS011;5967;48.944;9.240;2022-09-21T05:18:02;5.13;;;3.77;;
11819;SDS011;5967;48.944;9.240;2022-09-21T05:20:28;11.83;;;4.03;;
11819;SDS011;5967;48.944;9.240;2022-09-21T05:22:53;5.33;;;3.37;;
11819;SDS011;5967;48.944;9.240;2022-09-21T05:25:19;8.07;;;3.80;;
11819;SDS011;5967;48.944;9.240;2022-09-21T05:27:45;4.57;;;3.50;;
11819;SDS011;5967;48.944;9.240;2022-09-21T05:30:10;6.77;;;3.70;;
11819;SDS011;5967;48.944;9.240;2022-09-21T05:32:55;5.87;;;3.90;;
11819;SDS011;5967;48.944;9.240;2022-09-21T05:35:31;4.83;;;3.80;;
11819;SDS011;5967;48.944;9.240;2022-09-21T05:38:06;5.50;;;3.87;;
11819;SDS011;5967;48.944;9.240;2022-09-21T05:40:40;7.20;;;3.70;;
11819;SDS011;5967;48.944;9.240;2022-09-21T05:43:07;4.33;;;3.83;;
11819;SDS011;5967;48.944;9.240;2022-09-21T05:45:33;7.13;;;3.80;;
11819;SDS011;5967;48.944;9.240;2022-09-21T05:48:10;5.60;;;3.93;;
11819;SDS011;5967;48.944;9.240;2022-09-21T05:51:22;7.10;;;3.63;;
11819;SDS011;5967;48.944;9.240;2022-09-21T06:05:10;5.03;;;3.47;;
11819;SDS011;5967;48.944;9.240;2022-09-21T06:07:38;14.00;;;4.87;;
11819;SDS011;5967;48.944;9.240;2022-09-21T06:10:04;8.13;;;3.40;;
11819;SDS011;5967;48.944;9.240;2022-09-21T06:12:30;7.23;;;4.10;;
11819;SDS011;5967;48.944;9.240;2022-09-21T06:14:56;6.47;;;3.70;;
11819;SDS011;5967;48.944;9.240;2022-09-21T06:17:22;6.80;;;3.50;;
11819;SDS011;5967;48.944;9.240;2022-09-21T06:19:51;8.13;;;3.83;;
11819;SDS011;5967;48.944;9.240;2022-09-21T06:22:17;7.33;;;3.87;;
11819;SDS011;5967;48.944;9.240;2022-09-21T06:24:43;5.57;;;3.03;;
11819;SDS011;5967;48.944;9.240;2022-09-21T06:27:08;4.77;;;3.53;;
11819;SDS011;5967;48.944;9.240;2022-09-21T06:29:34;9.23;;;3.60;;
11819;SDS011;5967;48.944;9.240;2022-09-21T06:32:00;5.60;;;3.50;;
11819;SDS011;5967;48.944;9.240;2022-09-21T06:34:26;6.37;;;3.60;;
11819;SDS011;5967;48.944;9.240;2022-09-21T06:36:52;5.47;;;3.70;;
11819;SDS011;5967;48.944;9.240;2022-09-21T06:39:18;4.93;;;3.80;;
11819;SDS011;5967;48.944;9.240;2022-09-21T06:41:43;6.13;;;4.23;;
11819;SDS011;5967;48.944;9.240;2022-09-21T06:44:09;11.40;;;4.00;;
11819;SDS011;5967;48.944;9.240;2022-09-21T06:46:34;4.53;;;3.43;;
11819;SDS011;5967;48.944;9.240;2022-09-21T06:49:00;6.13;;;3.87;;
11819;SDS011;5967;48.944;9.240;2022-09-21T06:51:26;4.87;;;3.33;;
11819;SDS011;5967;48.944;9.240;2022-09-21T06:53:54;5.17;;;3.80;;
11819;SDS011;5967;48.944;9.240;2022-09-21T06:56:21;6.13;;;3.90;;
11819;SDS011;5967;48.944;9.240;2022-09-21T06:58:48;3.93;;;3.37;;
11819;SDS011;5967;48.944;9.240;2022-09-21T07:01:14;5.77;;;3.83;;
11819;SDS011;5967;48.944;9.240;2022-09-21T07:03:42;4.43;;;3.30;;
11819;SDS011;5967;48.944;9.240;2022-09-21T07:06:09;7.17;;;3.67;;
11819;SDS011;5967;48.944;9.240;2022-09-21T07:08:37;7.00;;;3.63;;
11819;SDS011;5967;48.944;9.240;2022-09-21T07:11:04;7.07;;;4.13;;
11819;SDS011;5967;48.944;9.240;2022-09-21T07:13:29;6.40;;;3.60;;
11819;SDS011;5967;48.944;9.240;2022-09-21T07:15:55;5.17;;;3.70;;
11819;SDS011;5967;48.944;9.240;2022-09-21T07:18:21;4.27;;;3.57;;
11819;SDS011;5967;48.944;9.240;2022-09-21T07:20:49;6.40;;;4.30;;
11819;SDS011;5967;48.944;9.240;2022-09-21T07:23:18;6.03;;;4.20;;
11819;SDS011;5967;48.944;9.240;2022-09-21T07:25:49;5.63;;;4.17;;
11819;SDS011;5967;48.944;9.240;2022-09-21T07:28:16;6.20;;;3.93;;
11819;SDS011;5967;48.944;9.240;2022-09-21T07:30:42;6.23;;;4.20;;
11819;SDS011;5967;48.944;9.240;2022-09-21T07:33:08;5.87;;;4.43;;
11819;SDS011;5967;48.944;9.240;2022-09-21T07:35:34;8.00;;;4.63;;
11819;SDS011;5967;48.944;9.240;2022-09-21T07:38:00;6.70;;;4.37;;
11819;SDS011;5967;48.944;9.240;2022-09-21T07:40:28;6.23;;;4.37;;
11819;SDS011;5967;48.944;9.240;2022-09-21T07:43:00;6.33;;;4.50;;
11819;SDS011;5967;48.944;9.240;2022-09-21T07:45:32;7.83;;;4.53;;
11819;SDS011;5967;48.944;9.240;2022-09-21T07:48:02;6.07;;;4.57;;
11819;SDS011;5967;48.944;9.240;2022-09-21T07:50:28;6.63;;;4.97;;
11819;SDS011;5967;48.944;9.240;2022-09-21T07:52:54;9.73;;;4.63;;
11819;SDS011;5967;48.944;9.240;2022-09-21T07:55:22;8.07;;;4.67;;
11819;SDS011;5967;48.944;9.240;2022-09-21T07:57:51;5.90;;;4.10;;
11819;SDS011;5967;48.944;9.240;2022-09-21T08:00:35;7.80;;;5.17;;
11819;SDS011;5967;48.944;9.240;2022-09-21T08:03:01;6.63;;;4.73;;
11819;SDS011;5967;48.944;9.240;2022-09-21T08:05:31;6.77;;;5.20;;
11819;SDS011;5967;48.944;9.240;2022-09-21T08:07:57;8.87;;;4.83;;
11819;SDS011;5967;48.944;9.240;2022-09-21T08:10:23;6.57;;;5.27;;
11819;SDS011;5967;48.944;9.240;2022-09-21T08:12:52;6.93;;;4.97;;
11819;SDS011;5967;48.944;9.240;2022-09-21T08:15:21;6.90;;;5.07;;
11819;SDS011;5967;48.944;9.240;2022-09-21T08:17:46;7.83;;;5.20;;
11819;SDS011;5967;48.944;9.240;2022-09-21T08:20:12;8.13;;;4.80;;
11819;SDS011;5967;48.944;9.240;2022-09-21T08:22:39;8.30;;;4.67;;
11819;SDS011;5967;48.944;9.240;2022-09-21T08:25:05;9.97;;;5.03;;
11819;SDS011;5967;48.944;9.240;2022-09-21T08:27:31;8.77;;;5.40;;
11819;SDS011;5967;48.944;9.240;2022-09-21T08:29:56;5.03;;;4.00;;
11819;SDS011;5967;48.944;9.240;2022-09-21T08:32:22;8.80;;;4.60;;
11819;SDS011;5967;48.944;9.240;2022-09-21T08:34:48;8.67;;;4.33;;
11819;SDS011;5967;48.944;9.240;2022-09-21T08:37:13;6.93;;;4.13;;
11819;SDS011;5967;48.944;9.240;2022-09-21T08:39:39;5.77;;;4.17;;
11819;SDS011;5967;48.944;9.240;2022-09-21T08:42:09;6.47;;;4.10;;
11819;SDS011;5967;48.944;9.240;2022-09-21T08:44:56;6.20;;;4.03;;
11819;SDS011;5967;48.944;9.240;2022-09-21T08:53:03;8.80;;;3.63;;
11819;SDS011;5967;48.944;9.240;2022-09-21T08:55:36;6.97;;;3.93;;
11819;SDS011;5967;48.944;9.240;2022-09-21T08:58:02;7.10;;;4.20;;
11819;SDS011;5967;48.944;9.240;2022-09-21T09:00:28;4.73;;;3.67;;
11819;SDS011;5967;48.944;9.240;2022-09-21T09:17:32;5.40;;;3.27;;
11819;SDS011;5967;48.944;9.240;2022-09-21T09:20:11;3.40;;;2.17;;
11819;SDS011;5967;48.944;9.240;2022-09-21T09:25:36;4.17;;;1.90;;
11819;SDS011;5967;48.944;9.240;2022-09-21T09:28:13;3.00;;;1.80;;
11819;SDS011;5967;48.944;9.240;2022-09-21T09:31:03;2.63;;;2.03;;
11819;SDS011;5967;48.944;9.240;2022-09-21T09:33:57;10.93;;;8.47;;
11819;SDS011;5967;48.944;9.240;2022-09-21T09:36:34;5.80;;;3.03;;
11819;SDS011;5967;48.944;9.240;2022-09-21T09:39:04;6.13;;;2.30;;
11819;SDS011;5967;48.944;9.240;2022-09-21T09:41:50;3.97;;;2.10;;
11819;SDS011;5967;48.944;9.240;2022-09-21T09:52:30;6.33;;;2.13;;
11819;SDS011;5967;48.944;9.240;2022-09-21T09:55:00;5.33;;;2.27;;
11819;SDS011;5967;48.944;9.240;2022-09-21T09:57:45;7.17;;;2.43;;
11819;SDS011;5967;48.944;9.240;2022-09-21T10:00:16;6.50;;;2.03;;
11819;SDS011;5967;48.944;9.240;2022-09-21T10:02:45;3.07;;;2.10;;
11819;SDS011;5967;48.944;9.240;2022-09-21T10:05:23;2.70;;;1.80;;
11819;SDS011;5967;48.944;9.240;2022-09-21T10:07:57;3.20;;;1.90;;
11819;SDS011;5967;48.944;9.240;2022-09-21T10:15:26;4.97;;;1.80;;
11819;SDS011;5967;48.944;9.240;2022-09-21T10:17:57;4.47;;;1.80;;
11819;SDS011;5967;48.944;9.240;2022-09-21T10:20:31;4.43;;;1.87;;
11819;SDS011;5967;48.944;9.240;2022-09-21T10:22:57;1.33;;;1.00;;
11819;SDS011;5967;48.944;9.240;2022-09-21T10:25:24;2.97;;;1.40;;
11819;SDS011;5967;48.944;9.240;2022-09-21T10:27:52;2.60;;;1.10;;
11819;SDS011;5967;48.944;9.240;2022-09-21T10:32:55;2.67;;;1.10;;
11819;SDS011;5967;48.944;9.240;2022-09-21T10:35:22;2.93;;;1.47;;
11819;SDS011;5967;48.944;9.240;2022-09-21T10:38:07;3.17;;;1.20;;
11819;SDS011;5967;48.944;9.240;2022-09-21T10:40:35;1.70;;;0.90;;
11819;SDS011;5967;48.944;9.240;2022-09-21T10:43:02;1.87;;;0.60;;
11819;SDS011;5967;48.944;9.240;2022-09-21T10:45:29;3.43;;;0.83;;
11819;SDS011;5967;48.944;9.240;2022-09-21T10:50:39;1.77;;;0.90;;
11819;SDS011;5967;48.944;9.240;2022-09-21T10:56:14;2.23;;;1.17;;
11819;SDS011;5967;48.944;9.240;2022-09-21T11:01:57;4.10;;;1.60;;
11819;SDS011;5967;48.944;9.240;2022-09-21T11:04:29;5.87;;;1.60;;
11819;SDS011;5967;48.944;9.240;2022-09-21T11:09:57;2.40;;;1.20;;
11819;SDS011;5967;48.944;9.240;2022-09-21T11:12:47;3.43;;;1.20;;
11819;SDS011;5967;48.944;9.240;2022-09-21T11:17:47;2.97;;;1.47;;
11819;SDS011;5967;48.944;9.240;2022-09-21T11:20:21;1.17;;;1.00;;
11819;SDS011;5967;48.944;9.240;2022-09-21T11:23:07;1.97;;;0.87;;
11819;SDS011;5967;48.944;9.240;2022-09-21T11:25:51;3.10;;;0.77;;
11819;SDS011;5967;48.944;9.240;2022-09-21T11:28:32;1.53;;;0.83;;
11819;SDS011;5967;48.944;9.240;2022-09-21T11:31:22;1.17;;;0.47;;
11819;SDS011;5967;48.944;9.240;2022-09-21T11:36:49;1.77;;;0.50;;
11819;SDS011;5967;48.944;9.240;2022-09-21T11:45:02;2.77;;;0.80;;
11819;SDS011;5967;48.944;9.240;2022-09-21T11:48:00;1.33;;;0.80;;
11819;SDS011;5967;48.944;9.240;2022-09-21T11:53:06;1.53;;;0.70;;
11819;SDS011;5967;48.944;9.240;2022-09-21T11:58:18;1.00;;;0.60;;
11819;SDS011;5967;48.944;9.240;2022-09-21T12:06:42;1.10;;;0.60;;
11819;SDS011;5967;48.944;9.240;2022-09-21T12:09:56;0.83;;;0.70;;
11819;SDS011;5967;48.944;9.240;2022-09-21T12:12:06;1.40;;;0.70;;
11819;SDS011;5967;48.944;9.240;2022-09-21T12:23:16;3.03;;;0.90;;
11819;SDS011;5967;48.944;9.240;2022-09-21T12:26:07;1.07;;;0.80;;
11819;SDS011;5967;48.944;9.240;2022-09-21T12:28:43;1.20;;;0.80;;
11819;SDS011;5967;48.944;9.240;2022-09-21T12:34:37;1.73;;;1.20;;
11819;SDS011;5967;48.944;9.240;2022-09-21T12:39:40;1.37;;;0.73;;
11819;SDS011;5967;48.944;9.240;2022-09-21T12:44:55;2.23;;;1.27;;
11819;SDS011;5967;48.944;9.240;2022-09-21T12:50:39;1.60;;;0.83;;
11819;SDS011;5967;48.944;9.240;2022-09-21T12:53:15;1.00;;;0.83;;
11819;SDS011;5967;48.944;9.240;2022-09-21T12:58:18;1.20;;;0.80;;
11819;SDS011;5967;48.944;9.240;2022-09-21T13:09:33;1.20;;;0.90;;
11819;SDS011;5967;48.944;9.240;2022-09-21T13:12:13;1.30;;;0.80;;
11819;SDS011;5967;48.944;9.240;2022-09-21T13:14:44;1.77;;;0.90;;
11819;SDS011;5967;48.944;9.240;2022-09-21T13:17:18;2.20;;;1.23;;
11819;SDS011;5967;48.944;9.240;2022-09-21T13:19:54;2.17;;;1.00;;
11819;SDS011;5967;48.944;9.240;2022-09-21T13:22:34;1.43;;;0.97;;
11819;SDS011;5967;48.944;9.240;2022-09-21T13:25:03;1.40;;;0.90;;
11819;SDS011;5967;48.944;9.240;2022-09-21T13:30:43;1.40;;;0.90;;
11819;SDS011;5967;48.944;9.240;2022-09-21T13:43:58;1.63;;;0.90;;
11819;SDS011;5967;48.944;9.240;2022-09-21T13:51:54;1.17;;;0.80;;
11819;SDS011;5967;48.944;9.240;2022-09-21T13:54:26;0.70;;;0.60;;
11819;SDS011;5967;48.944;9.240;2022-09-21T13:57:04;1.73;;;1.00;;
11819;SDS011;5967;48.944;9.240;2022-09-21T14:00:23;2.67;;;1.00;;
11819;SDS011;5967;48.944;9.240;2022-09-21T14:02:57;1.50;;;0.90;;
11819;SDS011;5967;48.944;9.240;2022-09-21T14:11:02;1.60;;;1.07;;
11819;SDS011;5967;48.944;9.240;2022-09-21T14:19:00;0.77;;;0.77;;
11819;SDS011;5967;48.944;9.240;2022-09-21T14:24:37;1.63;;;0.90;;
11819;SDS011;5967;48.944;9.240;2022-09-21T14:29:59;1.47;;;1.20;;
11819;SDS011;5967;48.944;9.240;2022-09-21T14:32:35;1.50;;;0.90;;
11819;SDS011;5967;48.944;9.240;2022-09-21T14:35:23;2.60;;;1.67;;
11819;SDS011;5967;48.944;9.240;2022-09-21T14:37:55;1.43;;;1.00;;
11819;SDS011;5967;48.944;9.240;2022-09-21T14:40:27;1.10;;;0.90;;
11819;SDS011;5967;48.944;9.240;2022-09-21T14:43:05;1.70;;;1.00;;
11819;SDS011;5967;48.944;9.240;2022-09-21T14:51:15;2.30;;;1.17;;
11819;SDS011;5967;48.944;9.240;2022-09-21T15:02:30;2.13;;;1.27;;
11819;SDS011;5967;48.944;9.240;2022-09-21T15:11:25;1.10;;;0.90;;
11819;SDS011;5967;48.944;9.240;2022-09-21T15:16:40;1.33;;;1.00;;
11819;SDS011;5967;48.944;9.240;2022-09-21T15:19:28;2.33;;;0.80;;
11819;SDS011;5967;48.944;9.240;2022-09-21T15:22:13;1.30;;;0.90;;
11819;SDS011;5967;48.944;9.240;2022-09-21T15:24:50;2.83;;;1.00;;
11819;SDS011;5967;48.944;9.240;2022-09-21T15:27:26;1.30;;;1.00;;
11819;SDS011;5967;48.944;9.240;2022-09-21T15:29:57;1.57;;;0.80;;
11819;SDS011;5967;48.944;9.240;2022-09-21T15:32:40;0.83;;;0.80;;
11819;SDS011;5967;48.944;9.240;2022-09-21T15:37:39;1.30;;;1.00;;
11819;SDS011;5967;48.944;9.240;2022-09-21T15:40:06;1.73;;;1.00;;
11819;SDS011;5967;48.944;9.240;2022-09-21T15:43:03;1.40;;;1.10;;
11819;SDS011;5967;48.944;9.240;2022-09-21T15:48:15;1.70;;;1.30;;
11819;SDS011;5967;48.944;9.240;2022-09-21T15:50:42;3.47;;;1.40;;
11819;SDS011;5967;48.944;9.240;2022-09-21T15:53:19;1.00;;;0.80;;
11819;SDS011;5967;48.944;9.240;2022-09-21T15:55:53;1.00;;;0.80;;
11819;SDS011;5967;48.944;9.240;2022-09-21T16:01:02;1.37;;;1.07;;
11819;SDS011;5967;48.944;9.240;2022-09-21T16:03:34;0.97;;;0.80;;
11819;SDS011;5967;48.944;9.240;2022-09-21T16:06:01;1.60;;;1.10;;
11819;SDS011;5967;48.944;9.240;2022-09-21T16:08:51;0.90;;;0.77;;
11819;SDS011;5967;48.944;9.240;2022-09-21T16:13:58;2.00;;;0.80;;
11819;SDS011;5967;48.944;9.240;2022-09-21T16:17:19;2.13;;;1.00;;
11819;SDS011;5967;48.944;9.240;2022-09-21T16:24:55;1.60;;;1.00;;
11819;SDS011;5967;48.944;9.240;2022-09-21T16:27:23;1.13;;;0.97;;
11819;SDS011;5967;48.944;9.240;2022-09-21T16:29:52;1.10;;;0.83;;
11819;SDS011;5967;48.944;9.240;2022-09-21T16:37:43;1.17;;;0.87;;
11819;SDS011;5967;48.944;9.240;2022-09-21T16:40:11;2.53;;;1.80;;
11819;SDS011;5967;48.944;9.240;2022-09-21T16:42:38;1.20;;;0.90;;
11819;SDS011;5967;48.944;9.240;2022-09-21T16:45:17;1.40;;;0.90;;
11819;SDS011;5967;48.944;9.240;2022-09-21T16:47:56;1.87;;;0.90;;
11819;SDS011;5967;48.944;9.240;2022-09-21T16:50:23;1.83;;;1.00;;
11819;SDS011;5967;48.944;9.240;2022-09-21T16:52:49;1.13;;;0.90;;
11819;SDS011;5967;48.944;9.240;2022-09-21T16:55:17;1.30;;;1.00;;
11819;SDS011;5967;48.944;9.240;2022-09-21T16:57:43;1.60;;;0.97;;
11819;SDS011;5967;48.944;9.240;2022-09-21T17:00:13;1.23;;;0.90;;
11819;SDS011;5967;48.944;9.240;2022-09-21T17:02:44;2.47;;;0.80;;
11819;SDS011;5967;48.944;9.240;2022-09-21T17:05:13;1.57;;;0.97;;
11819;SDS011;5967;48.944;9.240;2022-09-21T17:07:53;2.50;;;1.00;;
11819;SDS011;5967;48.944;9.240;2022-09-21T17:10:20;0.90;;;0.80;;
11819;SDS011;5967;48.944;9.240;2022-09-21T17:12:51;1.40;;;0.80;;
11819;SDS011;5967;48.944;9.240;2022-09-21T17:15:17;1.40;;;0.93;;
11819;SDS011;5967;48.944;9.240;2022-09-21T17:17:44;3.30;;;1.20;;
11819;SDS011;5967;48.944;9.240;2022-09-21T17:20:17;1.33;;;1.20;;
11819;SDS011;5967;48.944;9.240;2022-09-21T17:22:53;1.23;;;1.00;;
11819;SDS011;5967;48.944;9.240;2022-09-21T17:25:19;2.93;;;1.40;;
11819;SDS011;5967;48.944;9.240;2022-09-21T17:27:44;2.00;;;1.20;;
11819;SDS011;5967;48.944;9.240;2022-09-21T17:30:11;2.47;;;1.60;;
11819;SDS011;5967;48.944;9.240;2022-09-21T17:32:37;2.67;;;2.30;;
11819;SDS011;5967;48.944;9.240;2022-09-21T17:35:13;4.80;;;3.40;;
11819;SDS011;5967;48.944;9.240;2022-09-21T17:37:45;15.13;;;11.73;;
11819;SDS011;5967;48.944;9.240;2022-09-21T17:40:11;4.93;;;4.00;;
11819;SDS011;5967;48.944;9.240;2022-09-21T17:42:38;7.33;;;5.33;;
11819;SDS011;5967;48.944;9.240;2022-09-21T17:45:29;6.20;;;4.70;;
11819;SDS011;5967;48.944;9.240;2022-09-21T17:48:03;4.80;;;3.83;;
11819;SDS011;5967;48.944;9.240;2022-09-21T17:50:41;1.83;;;1.40;;
11819;SDS011;5967;48.944;9.240;2022-09-21T17:53:08;2.43;;;1.43;;
11819;SDS011;5967;48.944;9.240;2022-09-21T17:55:56;4.17;;;2.03;;
11819;SDS011;5967;48.944;9.240;2022-09-21T18:01:04;2.63;;;2.30;;
11819;SDS011;5967;48.944;9.240;2022-09-21T18:03:32;2.43;;;2.10;;
11819;SDS011;5967;48.944;9.240;2022-09-21T18:06:02;2.27;;;1.40;;
11819;SDS011;5967;48.944;9.240;2022-09-21T18:08:29;2.20;;;1.33;;
11819;SDS011;5967;48.944;9.240;2022-09-21T18:11:11;2.60;;;1.60;;
11819;SDS011;5967;48.944;9.240;2022-09-21T18:16:42;2.53;;;1.87;;
11819;SDS011;5967;48.944;9.240;2022-09-21T18:25:32;2.33;;;1.70;;
11819;SDS011;5967;48.944;9.240;2022-09-21T18:28:09;2.37;;;1.63;;
11819;SDS011;5967;48.944;9.240;2022-09-21T18:30:41;2.10;;;1.40;;
11819;SDS011;5967;48.944;9.240;2022-09-21T18:38:36;2.77;;;1.43;;
11819;SDS011;5967;48.944;9.240;2022-09-21T18:44:00;4.10;;;1.70;;
11819;SDS011;5967;48.944;9.240;2022-09-21T18:49:34;1.93;;;1.40;;
11819;SDS011;5967;48.944;9.240;2022-09-21T18:55:13;2.50;;;1.50;;
11819;SDS011;5967;48.944;9.240;2022-09-21T18:57:49;1.67;;;1.30;;
11819;SDS011;5967;48.944;9.240;2022-09-21T19:00:15;1.77;;;1.47;;
11819;SDS011;5967;48.944;9.240;2022-09-21T19:02:41;2.73;;;1.80;;
11819;SDS011;5967;48.944;9.240;2022-09-21T19:05:10;3.53;;;2.00;;
11819;SDS011;5967;48.944;9.240;2022-09-21T19:07:41;2.60;;;1.43;;
11819;SDS011;5967;48.944;9.240;2022-09-21T19:12:49;3.60;;;3.03;;
11819;SDS011;5967;48.944;9.240;2022-09-21T19:15:20;5.03;;;4.00;;
11819;SDS011;5967;48.944;9.240;2022-09-21T19:17:58;4.53;;;3.43;;
11819;SDS011;5967;48.944;9.240;2022-09-21T19:26:18;2.83;;;2.40;;
11819;SDS011;5967;48.944;9.240;2022-09-21T19:31:45;3.53;;;2.13;;
11819;SDS011;5967;48.944;9.240;2022-09-21T19:34:12;3.50;;;2.37;;
11819;SDS011;5967;48.944;9.240;2022-09-21T19:36:40;4.63;;;2.57;;
11819;SDS011;5967;48.944;9.240;2022-09-21T19:39:07;3.20;;;2.53;;
11819;SDS011;5967;48.944;9.240;2022-09-21T19:44:37;2.53;;;2.10;;
11819;SDS011;5967;48.944;9.240;2022-09-21T19:50:11;3.47;;;2.90;;